createdAt,value
2023-05-25T00:02:15.518Z,102472.53
2023-05-25T00:07:19.905Z,102468.06
2023-05-25T00:12:23.885Z,102470.03
2023-05-25T00:17:30.065Z,102472.22
2023-05-25T00:22:34.375Z,102471.88
2023-05-25T00:27:38.123Z,102473.28
2023-05-25T00:32:43.266Z,102478.69
2023-05-25T00:37:47.640Z,102485.22
2023-05-25T00:42:52.126Z,102479.72
2023-05-25T00:47:57.698Z,102482.91
2023-05-25T00:53:01.927Z,102482.56
2023-05-25T00:58:08.868Z,102477.84
2023-05-25T01:03:17.759Z,102474.06
2023-05-25T01:08:24.667Z,102477.97
2023-05-25T01:13:29.584Z,102482.97
2023-05-25T01:18:36.027Z,102487.47
2023-05-25T01:23:48.110Z,102484.44
2023-05-25T01:40:51.215Z,102502.38
2023-05-25T01:46:00.754Z,102502.75
2023-05-25T01:51:13.797Z,102494.78
2023-05-25T01:56:21.461Z,102508.94
2023-05-25T02:01:27.216Z,102513.63
2023-05-25T02:06:31.909Z,102512.09
2023-05-25T02:11:39.669Z,102517.19
2023-05-25T02:16:46.079Z,102514.28
2023-05-25T02:21:49.950Z,102517.34
2023-05-25T02:26:55.170Z,102516.03
2023-05-25T02:32:00.087Z,102513.81
2023-05-25T02:37:05.426Z,102504.94
2023-05-25T02:42:10.531Z,102508.69
2023-05-25T02:47:14.262Z,102505.00
2023-05-25T02:52:18.088Z,102507.38
2023-05-25T02:57:23.359Z,102507.75
2023-05-25T03:02:29.052Z,102510.78
2023-05-25T03:07:33.480Z,102528.50
2023-05-25T03:12:38.649Z,102525.66
2023-05-25T03:17:42.466Z,102532.13
2023-05-25T03:22:46.333Z,102540.25
2023-05-25T03:27:54.298Z,102548.00
2023-05-25T03:32:58.078Z,102551.03
2023-05-25T03:38:03.173Z,102551.50
2023-05-25T03:43:08.349Z,102557.56
2023-05-25T03:48:12.320Z,102547.34
2023-05-25T03:53:16.410Z,102552.41
2023-05-25T03:58:23.044Z,102549.25
2023-05-25T04:03:27.938Z,102558.94
2023-05-25T04:08:31.889Z,102559.72
2023-05-25T04:13:36.973Z,102562.53
2023-05-25T04:18:41.613Z,102565.78
2023-05-25T04:23:45.791Z,102576.94
2023-05-25T04:28:51.938Z,102576.34
2023-05-25T04:33:59.036Z,102586.16
2023-05-25T04:39:04.276Z,102585.69
2023-05-25T04:44:11.273Z,102583.34
2023-05-25T04:49:16.835Z,102587.59
2023-05-25T04:54:20.979Z,102588.53
2023-05-25T04:59:26.231Z,102583.69
2023-05-25T05:04:30.470Z,102589.19
2023-05-25T05:09:34.339Z,102592.06
2023-05-25T05:14:40.346Z,102607.84
2023-05-25T05:19:44.715Z,102614.13
2023-05-25T05:24:48.984Z,102610.28
2023-05-25T05:29:56.676Z,102608.12
2023-05-25T05:35:01.107Z,102613.63
2023-05-25T05:40:09.270Z,102618.25
2023-05-25T05:45:14.596Z,102631.84
2023-05-25T05:50:19.246Z,102635.78
2023-05-25T05:55:23.296Z,102641.25
2023-05-25T06:00:29.883Z,102642.59
2023-05-25T06:05:33.869Z,102645.97
2023-05-25T06:10:37.949Z,102656.25
2023-05-25T06:15:43.488Z,102653.41
2023-05-25T06:20:48.172Z,102654.13
2023-05-25T06:25:53.601Z,102653.31
2023-05-25T06:30:59.580Z,102652.63
2023-05-25T06:36:04.920Z,102656.09
2023-05-25T06:41:12.830Z,102663.59
2023-05-25T06:46:18.953Z,102665.94
2023-05-25T06:51:22.746Z,102662.75
2023-05-25T06:56:26.594Z,102673.81
2023-05-25T07:01:31.776Z,102669.12
2023-05-25T07:06:36.515Z,102677.22
2023-05-25T07:11:40.265Z,102675.81
2023-05-25T07:16:46.083Z,102679.31
2023-05-25T07:21:49.839Z,102688.69
2023-05-25T07:26:53.706Z,102683.66
2023-05-25T07:31:58.780Z,102687.72
2023-05-25T07:37:02.603Z,102682.88
2023-05-25T07:42:06.597Z,102691.91
2023-05-25T07:47:12.383Z,102688.09
2023-05-25T07:52:16.793Z,102697.53
2023-05-25T07:57:20.736Z,102698.25
2023-05-25T08:02:26.164Z,102697.81
2023-05-25T08:07:30.046Z,102706.88
2023-05-25T08:12:46.179Z,102701.25
2023-05-25T08:17:53.292Z,102708.94
2023-05-25T08:22:56.971Z,102714.87
2023-05-25T08:28:00.795Z,102715.06
2023-05-25T08:33:06.965Z,102725.81
2023-05-25T08:38:10.777Z,102722.66
2023-05-25T08:43:14.583Z,102732.41
2023-05-25T08:48:39.289Z,102724.03
2023-05-25T08:53:44.853Z,102728.44
2023-05-25T08:58:54.851Z,102725.75
2023-05-25T09:04:02.335Z,102739.34
2023-05-25T09:09:06.438Z,102732.19
2023-05-25T09:14:10.164Z,102727.19
2023-05-25T09:19:18.068Z,102732.53
2023-05-25T09:24:23.136Z,102738.13
2023-05-25T09:29:27.640Z,102733.56
2023-05-25T09:34:34.859Z,102726.31
2023-05-25T09:39:39.096Z,102731.47
2023-05-25T09:44:43.682Z,102739.63
2023-05-25T09:49:50.564Z,102735.84
2023-05-25T09:54:55.034Z,102739.47
2023-05-25T09:59:58.870Z,102735.00
2023-05-25T10:05:04.188Z,102738.91
2023-05-25T10:10:09.426Z,102734.03
2023-05-25T10:15:14.797Z,102743.72
2023-05-25T10:20:21.936Z,102739.53
2023-05-25T10:25:29.975Z,102742.50
2023-05-25T10:30:36.872Z,102743.50
2023-05-25T10:36:01.332Z,102735.34
2023-05-25T10:41:07.435Z,102745.94
2023-05-25T10:46:12.612Z,102751.97
2023-05-25T10:51:20.576Z,102767.09
2023-05-25T10:56:24.364Z,102746.00
2023-05-25T11:01:28.288Z,102748.63
2023-05-25T11:07:13.281Z,102754.50
2023-05-25T11:12:21.820Z,102751.31
2023-05-25T11:17:27.509Z,102739.84
2023-05-25T11:22:35.336Z,102734.59
2023-05-25T11:27:47.344Z,102731.16
2023-05-25T11:32:51.482Z,102740.84
2023-05-25T11:37:56.567Z,102734.03
2023-05-25T11:43:01.278Z,102718.47
2023-05-25T11:48:05.903Z,102716.69
2023-05-25T11:53:11.711Z,102714.87
2023-05-25T11:58:15.500Z,102706.97
2023-05-25T12:03:34.476Z,102701.91
2023-05-25T12:08:39.695Z,102689.34
2023-05-25T12:13:43.516Z,102691.03
2023-05-25T12:18:47.578Z,102685.16
2023-05-25T12:23:54.774Z,102688.88
2023-05-25T12:29:02.292Z,102690.09
2023-05-25T12:34:07.219Z,102690.28
2023-05-25T12:39:14.288Z,102683.81
2023-05-25T12:44:23.107Z,102683.28
2023-05-25T12:49:28.805Z,102682.25
2023-05-25T12:54:51.744Z,102682.66
2023-05-25T12:59:57.496Z,102681.41
2023-05-25T13:05:01.351Z,102677.50
2023-05-25T13:10:07.509Z,102677.91
2023-05-25T13:15:11.806Z,102671.47
2023-05-25T13:20:16.448Z,102674.31
2023-05-25T13:25:22.185Z,102674.16
2023-05-25T13:30:26.420Z,102664.44
2023-05-25T13:35:45.575Z,102660.59
2023-05-25T13:40:50.656Z,102664.53
2023-05-25T13:45:54.843Z,102664.56
2023-05-25T13:50:59.867Z,102655.12
2023-05-25T13:56:04.994Z,102651.53
2023-05-25T14:01:09.442Z,102659.00
2023-05-25T14:06:13.433Z,102657.13
2023-05-25T14:11:22.110Z,102650.44
2023-05-25T14:16:31.965Z,102643.63
2023-05-25T14:21:35.816Z,102642.09
2023-05-25T14:26:42.618Z,102640.28
2023-05-25T14:31:46.544Z,102648.44
2023-05-25T14:36:50.400Z,102650.44
2023-05-25T14:41:56.169Z,102649.53
2023-05-25T14:47:00.055Z,102651.84
2023-05-25T14:52:04.074Z,102652.41
2023-05-25T14:57:09.157Z,102649.06
2023-05-25T15:02:12.905Z,102630.22
2023-05-25T15:07:16.713Z,102637.59
2023-05-25T15:12:21.816Z,102637.34
2023-05-25T15:17:25.636Z,102641.88
2023-05-25T15:22:29.401Z,102634.03
2023-05-25T15:27:34.884Z,102628.59
2023-05-25T15:32:38.716Z,102635.97
2023-05-25T15:37:43.067Z,102633.53
2023-05-25T15:42:48.241Z,102630.03
2023-05-25T15:47:52.057Z,102637.72
2023-05-25T15:52:55.826Z,102631.50
2023-05-25T15:58:00.915Z,102638.59
2023-05-25T16:03:05.324Z,102639.72
2023-05-25T16:08:09.141Z,102630.37
2023-05-25T16:13:14.369Z,102627.84
2023-05-25T16:18:18.142Z,102623.94
2023-05-25T16:23:22.008Z,102626.34
2023-05-25T16:28:27.252Z,102626.53
2023-05-25T16:33:31.050Z,102622.31
2023-05-25T16:38:34.890Z,102615.88
2023-05-25T16:43:39.973Z,102627.22
2023-05-25T16:48:43.816Z,102622.44
2023-05-25T16:53:47.566Z,102618.22
2023-05-25T16:58:52.690Z,102622.75
2023-05-25T17:03:56.561Z,102631.34
2023-05-25T17:09:00.903Z,102624.62
2023-05-25T17:14:06.056Z,102617.06
2023-05-25T17:19:10.890Z,102609.53
2023-05-25T17:24:14.815Z,102611.91
2023-05-25T17:29:19.909Z,102612.38
2023-05-25T17:34:23.709Z,102624.62
2023-05-25T17:39:27.471Z,102618.00
2023-05-25T17:44:32.616Z,102619.56
2023-05-25T17:49:36.482Z,102620.56
2023-05-25T17:54:40.292Z,102625.81
2023-05-25T17:59:45.904Z,102623.88
2023-05-25T18:04:49.707Z,102625.47
2023-05-25T18:09:53.442Z,102622.78
2023-05-25T18:14:58.638Z,102618.47
2023-05-25T18:20:02.398Z,102625.38
2023-05-25T18:25:07.232Z,102628.09
2023-05-25T18:30:13.484Z,102629.84
2023-05-25T18:35:17.273Z,102636.75
2023-05-25T18:40:21.352Z,102630.94
2023-05-25T18:45:26.975Z,102628.84
2023-05-25T18:50:30.697Z,102631.47
2023-05-25T18:55:34.489Z,102635.38
2023-05-25T19:00:39.580Z,102644.44
2023-05-25T19:05:43.513Z,102654.28
2023-05-25T19:10:47.452Z,102651.34
2023-05-25T19:15:52.553Z,102656.44
2023-05-25T19:20:56.321Z,102658.50
2023-05-25T19:26:00.122Z,102655.84
2023-05-25T19:31:05.647Z,102656.56
2023-05-25T19:36:09.436Z,102668.28
2023-05-25T19:41:13.214Z,102662.25
2023-05-25T19:46:18.695Z,102677.25
2023-05-25T19:51:22.676Z,102680.91
2023-05-25T19:56:26.532Z,102684.53
2023-05-25T20:01:32.029Z,102687.53
2023-05-25T20:06:37.455Z,102695.88
2023-05-25T20:11:41.647Z,102695.13
2023-05-25T20:16:46.751Z,102697.91
2023-05-25T20:21:50.506Z,102700.25
2023-05-25T20:26:56.755Z,102710.75
2023-05-25T20:32:02.188Z,102709.78
2023-05-25T20:37:06.107Z,102712.94
2023-05-25T20:42:10.275Z,102712.41
2023-05-25T20:47:15.375Z,102723.56
2023-05-25T20:52:19.261Z,102732.28
2023-05-25T20:57:23.024Z,102734.97
2023-05-25T21:02:28.812Z,102734.78
2023-05-25T21:07:32.853Z,102742.16
2023-05-25T21:12:37.215Z,102758.37
2023-05-25T21:17:42.353Z,102754.91
2023-05-25T21:22:46.121Z,102754.25
2023-05-25T21:27:49.871Z,102754.97
2023-05-25T21:32:55.009Z,102760.53
2023-05-25T21:37:58.761Z,102753.22
2023-05-25T21:43:02.626Z,102758.78
2023-05-25T21:48:07.861Z,102757.94
2023-05-25T21:53:11.648Z,102769.47
2023-05-25T21:58:16.997Z,102764.69
2023-05-25T22:03:22.348Z,102772.31
2023-05-25T22:08:26.057Z,102774.72
2023-05-25T22:13:29.884Z,102780.47
2023-05-25T22:18:36.475Z,102775.87
2023-05-25T22:23:41.508Z,102776.16
2023-05-25T22:28:45.236Z,102779.16
2023-05-25T22:33:50.381Z,102773.69
2023-05-25T22:38:54.160Z,102777.25
2023-05-25T22:43:57.917Z,102780.06
2023-05-25T22:49:03.061Z,102783.25
2023-05-25T22:54:06.880Z,102784.16
2023-05-25T22:59:10.619Z,102792.91
2023-05-25T23:04:15.897Z,102788.44
2023-05-25T23:09:19.785Z,102791.31
2023-05-25T23:14:23.604Z,102790.47
2023-05-25T23:19:28.704Z,102791.28
2023-05-25T23:24:32.453Z,102802.84
2023-05-25T23:29:36.243Z,102802.41
2023-05-25T23:34:41.711Z,102809.56
2023-05-25T23:39:45.544Z,102795.75
2023-05-25T23:44:49.297Z,102801.53
2023-05-25T23:49:54.368Z,102801.53
2023-05-25T23:54:58.120Z,102794.66
